<?xml version="1.0" encoding="UTF-8" standalone="no" ?>
<gpx xmlns="http://www.topografix.com/GPX/1/1" xmlns:xsi="http://www.w3.org/2001/XMLSchema-instance" xsi:schemaLocation="http://www.topografix.com/GPX/1/1 http://www.topografix.com/GPX/1/1/gpx.xsd" version="1.1" creator="VisuGPX - https://www.visugpx.com">
  <metadata>
    <name>Fuveau Chem. de la Caraire des Arlésiens</name>
  </metadata>
  <trk>
    <name><![CDATA[Fuveau Chem. de la Caraire des Arlésiens_1]]></name>
    <trkseg>
      <trkpt lat="43.45407" lon="5.52794">
        <ele>388</ele>
        <time>2022-02-22T13:28:26Z</time>
      </trkpt>
      <trkpt lat="43.45407" lon="5.52775">
        <ele>377</ele>
        <time>2022-02-22T13:28:42Z</time>
      </trkpt>
      <trkpt lat="43.45402" lon="5.52754">
        <ele>374</ele>
        <time>2022-02-22T13:28:57Z</time>
      </trkpt>
      <trkpt lat="43.454" lon="5.5273">
        <ele>370</ele>
        <time>2022-02-22T13:29:13Z</time>
      </trkpt>
      <trkpt lat="43.454" lon="5.52709">
        <ele>365</ele>
        <time>2022-02-22T13:29:28Z</time>
      </trkpt>
      <trkpt lat="43.454" lon="5.5269">
        <ele>366</ele>
        <time>2022-02-22T13:29:44Z</time>
      </trkpt>
      <trkpt lat="43.45399" lon="5.52665">
        <ele>366</ele>
        <time>2022-02-22T13:30:00Z</time>
      </trkpt>
      <trkpt lat="43.45398" lon="5.52642">
        <ele>369</ele>
        <time>2022-02-22T13:30:15Z</time>
      </trkpt>
      <trkpt lat="43.45395" lon="5.5262">
        <ele>371</ele>
        <time>2022-02-22T13:30:31Z</time>
      </trkpt>
      <trkpt lat="43.45394" lon="5.52599">
        <ele>373</ele>
        <time>2022-02-22T13:30:46Z</time>
      </trkpt>
      <trkpt lat="43.45391" lon="5.52579">
        <ele>374</ele>
        <time>2022-02-22T13:31:02Z</time>
      </trkpt>
      <trkpt lat="43.45394" lon="5.52578">
        <ele>372</ele>
        <time>2022-02-22T13:31:17Z</time>
      </trkpt>
      <trkpt lat="43.45394" lon="5.52577">
        <ele>374</ele>
        <time>2022-02-22T13:31:33Z</time>
      </trkpt>
      <trkpt lat="43.4539" lon="5.52567">
        <ele>375</ele>
        <time>2022-02-22T13:31:48Z</time>
      </trkpt>
      <trkpt lat="43.45389" lon="5.52544">
        <ele>374</ele>
        <time>2022-02-22T13:32:03Z</time>
      </trkpt>
      <trkpt lat="43.45385" lon="5.52527">
        <ele>375</ele>
        <time>2022-02-22T13:32:19Z</time>
      </trkpt>
      <trkpt lat="43.45383" lon="5.52504">
        <ele>376</ele>
        <time>2022-02-22T13:32:34Z</time>
      </trkpt>
      <trkpt lat="43.45378" lon="5.52478">
        <ele>378</ele>
        <time>2022-02-22T13:32:50Z</time>
      </trkpt>
      <trkpt lat="43.45378" lon="5.52463">
        <ele>379</ele>
        <time>2022-02-22T13:33:06Z</time>
      </trkpt>
      <trkpt lat="43.45375" lon="5.52443">
        <ele>380</ele>
        <time>2022-02-22T13:33:21Z</time>
      </trkpt>
      <trkpt lat="43.45377" lon="5.52418">
        <ele>381</ele>
        <time>2022-02-22T13:33:37Z</time>
      </trkpt>
      <trkpt lat="43.45384" lon="5.524">
        <ele>381</ele>
        <time>2022-02-22T13:33:52Z</time>
      </trkpt>
      <trkpt lat="43.45386" lon="5.524">
        <ele>383</ele>
        <time>2022-02-22T13:34:07Z</time>
      </trkpt>
      <trkpt lat="43.45397" lon="5.52406">
        <ele>380</ele>
        <time>2022-02-22T13:34:23Z</time>
      </trkpt>
      <trkpt lat="43.45407" lon="5.52411">
        <ele>378</ele>
        <time>2022-02-22T13:34:39Z</time>
      </trkpt>
      <trkpt lat="43.4542" lon="5.5242">
        <ele>377</ele>
        <time>2022-02-22T13:34:55Z</time>
      </trkpt>
      <trkpt lat="43.45435" lon="5.52427">
        <ele>377</ele>
        <time>2022-02-22T13:35:10Z</time>
      </trkpt>
      <trkpt lat="43.45449" lon="5.52428">
        <ele>377</ele>
        <time>2022-02-22T13:35:25Z</time>
      </trkpt>
      <trkpt lat="43.45467" lon="5.52424">
        <ele>374</ele>
        <time>2022-02-22T13:35:41Z</time>
      </trkpt>
      <trkpt lat="43.4548" lon="5.52421">
        <ele>375</ele>
        <time>2022-02-22T13:35:57Z</time>
      </trkpt>
      <trkpt lat="43.45496" lon="5.52416">
        <ele>373</ele>
        <time>2022-02-22T13:36:13Z</time>
      </trkpt>
      <trkpt lat="43.45513" lon="5.52409">
        <ele>374</ele>
        <time>2022-02-22T13:36:28Z</time>
      </trkpt>
      <trkpt lat="43.45531" lon="5.52407">
        <ele>371</ele>
        <time>2022-02-22T13:36:44Z</time>
      </trkpt>
      <trkpt lat="43.45546" lon="5.52397">
        <ele>370</ele>
        <time>2022-02-22T13:36:59Z</time>
      </trkpt>
      <trkpt lat="43.45561" lon="5.52377">
        <ele>374</ele>
        <time>2022-02-22T13:37:15Z</time>
      </trkpt>
      <trkpt lat="43.45573" lon="5.52359">
        <ele>374</ele>
        <time>2022-02-22T13:37:31Z</time>
      </trkpt>
      <trkpt lat="43.45585" lon="5.52343">
        <ele>373</ele>
        <time>2022-02-22T13:37:46Z</time>
      </trkpt>
      <trkpt lat="43.45599" lon="5.52327">
        <ele>374</ele>
        <time>2022-02-22T13:38:02Z</time>
      </trkpt>
      <trkpt lat="43.45608" lon="5.52316">
        <ele>373</ele>
        <time>2022-02-22T13:38:17Z</time>
      </trkpt>
      <trkpt lat="43.45617" lon="5.52304">
        <ele>373</ele>
        <time>2022-02-22T13:38:33Z</time>
      </trkpt>
      <trkpt lat="43.45618" lon="5.52306">
        <ele>374</ele>
        <time>2022-02-22T13:38:48Z</time>
      </trkpt>
      <trkpt lat="43.45617" lon="5.52302">
        <ele>374</ele>
        <time>2022-02-22T13:39:04Z</time>
      </trkpt>
      <trkpt lat="43.45616" lon="5.52302">
        <ele>375</ele>
        <time>2022-02-22T13:39:19Z</time>
      </trkpt>
      <trkpt lat="43.45617" lon="5.52303">
        <ele>376</ele>
        <time>2022-02-22T13:39:35Z</time>
      </trkpt>
      <trkpt lat="43.45621" lon="5.52301">
        <ele>374</ele>
        <time>2022-02-22T13:39:50Z</time>
      </trkpt>
      <trkpt lat="43.45628" lon="5.52292">
        <ele>373</ele>
        <time>2022-02-22T13:40:06Z</time>
      </trkpt>
      <trkpt lat="43.45637" lon="5.52275">
        <ele>373</ele>
        <time>2022-02-22T13:40:22Z</time>
      </trkpt>
      <trkpt lat="43.45646" lon="5.52256">
        <ele>371</ele>
        <time>2022-02-22T13:40:38Z</time>
      </trkpt>
      <trkpt lat="43.45658" lon="5.52243">
        <ele>371</ele>
        <time>2022-02-22T13:40:53Z</time>
      </trkpt>
      <trkpt lat="43.45674" lon="5.52237">
        <ele>368</ele>
        <time>2022-02-22T13:41:09Z</time>
      </trkpt>
      <trkpt lat="43.45689" lon="5.52223">
        <ele>368</ele>
        <time>2022-02-22T13:41:24Z</time>
      </trkpt>
      <trkpt lat="43.45702" lon="5.52204">
        <ele>368</ele>
        <time>2022-02-22T13:41:40Z</time>
      </trkpt>
      <trkpt lat="43.45714" lon="5.52183">
        <ele>367</ele>
        <time>2022-02-22T13:41:56Z</time>
      </trkpt>
      <trkpt lat="43.45724" lon="5.52163">
        <ele>367</ele>
        <time>2022-02-22T13:42:12Z</time>
      </trkpt>
      <trkpt lat="43.45734" lon="5.52145">
        <ele>366</ele>
        <time>2022-02-22T13:42:27Z</time>
      </trkpt>
      <trkpt lat="43.45745" lon="5.52125">
        <ele>369</ele>
        <time>2022-02-22T13:42:42Z</time>
      </trkpt>
      <trkpt lat="43.45751" lon="5.52106">
        <ele>369</ele>
        <time>2022-02-22T13:42:57Z</time>
      </trkpt>
      <trkpt lat="43.45761" lon="5.52089">
        <ele>369</ele>
        <time>2022-02-22T13:43:12Z</time>
      </trkpt>
      <trkpt lat="43.45772" lon="5.52071">
        <ele>368</ele>
        <time>2022-02-22T13:43:28Z</time>
      </trkpt>
      <trkpt lat="43.45784" lon="5.52064">
        <ele>369</ele>
        <time>2022-02-22T13:43:43Z</time>
      </trkpt>
      <trkpt lat="43.45798" lon="5.52055">
        <ele>366</ele>
        <time>2022-02-22T13:43:58Z</time>
      </trkpt>
      <trkpt lat="43.45814" lon="5.52048">
        <ele>367</ele>
        <time>2022-02-22T13:44:14Z</time>
      </trkpt>
      <trkpt lat="43.45822" lon="5.52042">
        <ele>366</ele>
        <time>2022-02-22T13:44:29Z</time>
      </trkpt>
      <trkpt lat="43.45832" lon="5.52036">
        <ele>367</ele>
        <time>2022-02-22T13:44:45Z</time>
      </trkpt>
      <trkpt lat="43.45831" lon="5.52036">
        <ele>369</ele>
        <time>2022-02-22T13:45:01Z</time>
      </trkpt>
      <trkpt lat="43.4583" lon="5.52036">
        <ele>369</ele>
        <time>2022-02-22T13:45:17Z</time>
      </trkpt>
      <trkpt lat="43.4583" lon="5.52036">
        <ele>372</ele>
        <time>2022-02-22T13:45:32Z</time>
      </trkpt>
      <trkpt lat="43.4583" lon="5.52035">
        <ele>372</ele>
        <time>2022-02-22T13:45:47Z</time>
      </trkpt>
      <trkpt lat="43.4583" lon="5.52035">
        <ele>372</ele>
        <time>2022-02-22T13:46:03Z</time>
      </trkpt>
      <trkpt lat="43.45832" lon="5.52035">
        <ele>371</ele>
        <time>2022-02-22T13:46:18Z</time>
      </trkpt>
      <trkpt lat="43.45833" lon="5.52034">
        <ele>371</ele>
        <time>2022-02-22T13:46:34Z</time>
      </trkpt>
      <trkpt lat="43.45841" lon="5.52032">
        <ele>369</ele>
        <time>2022-02-22T13:46:49Z</time>
      </trkpt>
      <trkpt lat="43.45853" lon="5.52033">
        <ele>370</ele>
        <time>2022-02-22T13:47:05Z</time>
      </trkpt>
      <trkpt lat="43.45866" lon="5.52038">
        <ele>370</ele>
        <time>2022-02-22T13:47:21Z</time>
      </trkpt>
      <trkpt lat="43.4588" lon="5.52047">
        <ele>369</ele>
        <time>2022-02-22T13:47:37Z</time>
      </trkpt>
      <trkpt lat="43.45885" lon="5.52051">
        <ele>372</ele>
        <time>2022-02-22T13:47:53Z</time>
      </trkpt>
      <trkpt lat="43.45893" lon="5.52062">
        <ele>370</ele>
        <time>2022-02-22T13:48:08Z</time>
      </trkpt>
      <trkpt lat="43.45905" lon="5.5207">
        <ele>365</ele>
        <time>2022-02-22T13:48:24Z</time>
      </trkpt>
      <trkpt lat="43.45912" lon="5.52066">
        <ele>364</ele>
        <time>2022-02-22T13:48:39Z</time>
      </trkpt>
      <trkpt lat="43.45926" lon="5.52063">
        <ele>366</ele>
        <time>2022-02-22T13:48:55Z</time>
      </trkpt>
      <trkpt lat="43.45938" lon="5.52062">
        <ele>369</ele>
        <time>2022-02-22T13:49:11Z</time>
      </trkpt>
      <trkpt lat="43.45943" lon="5.52062">
        <ele>369</ele>
        <time>2022-02-22T13:49:26Z</time>
      </trkpt>
      <trkpt lat="43.45944" lon="5.52063">
        <ele>369</ele>
        <time>2022-02-22T13:49:41Z</time>
      </trkpt>
      <trkpt lat="43.45943" lon="5.52063">
        <ele>367</ele>
        <time>2022-02-22T13:49:57Z</time>
      </trkpt>
      <trkpt lat="43.45943" lon="5.52063">
        <ele>367</ele>
        <time>2022-02-22T13:50:13Z</time>
      </trkpt>
      <trkpt lat="43.45943" lon="5.52064">
        <ele>366</ele>
        <time>2022-02-22T13:50:29Z</time>
      </trkpt>
      <trkpt lat="43.45945" lon="5.52064">
        <ele>365</ele>
        <time>2022-02-22T13:50:45Z</time>
      </trkpt>
      <trkpt lat="43.45958" lon="5.52071">
        <ele>365</ele>
        <time>2022-02-22T13:51:00Z</time>
      </trkpt>
      <trkpt lat="43.45968" lon="5.52083">
        <ele>363</ele>
        <time>2022-02-22T13:51:15Z</time>
      </trkpt>
      <trkpt lat="43.4598" lon="5.52095">
        <ele>363</ele>
        <time>2022-02-22T13:51:31Z</time>
      </trkpt>
      <trkpt lat="43.45993" lon="5.52098">
        <ele>361</ele>
        <time>2022-02-22T13:51:47Z</time>
      </trkpt>
      <trkpt lat="43.46006" lon="5.52097">
        <ele>362</ele>
        <time>2022-02-22T13:52:03Z</time>
      </trkpt>
      <trkpt lat="43.46019" lon="5.52097">
        <ele>363</ele>
        <time>2022-02-22T13:52:18Z</time>
      </trkpt>
      <trkpt lat="43.4603" lon="5.52102">
        <ele>362</ele>
        <time>2022-02-22T13:52:34Z</time>
      </trkpt>
      <trkpt lat="43.46033" lon="5.52104">
        <ele>360</ele>
        <time>2022-02-22T13:52:49Z</time>
      </trkpt>
      <trkpt lat="43.46033" lon="5.52104">
        <ele>360</ele>
        <time>2022-02-22T13:53:04Z</time>
      </trkpt>
      <trkpt lat="43.46042" lon="5.52107">
        <ele>359</ele>
        <time>2022-02-22T13:53:20Z</time>
      </trkpt>
      <trkpt lat="43.46052" lon="5.52109">
        <ele>356</ele>
        <time>2022-02-22T13:53:35Z</time>
      </trkpt>
      <trkpt lat="43.46064" lon="5.52106">
        <ele>355</ele>
        <time>2022-02-22T13:53:51Z</time>
      </trkpt>
      <trkpt lat="43.46077" lon="5.52111">
        <ele>354</ele>
        <time>2022-02-22T13:54:07Z</time>
      </trkpt>
      <trkpt lat="43.46091" lon="5.52121">
        <ele>351</ele>
        <time>2022-02-22T13:54:22Z</time>
      </trkpt>
      <trkpt lat="43.46104" lon="5.52128">
        <ele>349</ele>
        <time>2022-02-22T13:54:38Z</time>
      </trkpt>
      <trkpt lat="43.46115" lon="5.52135">
        <ele>348</ele>
        <time>2022-02-22T13:54:53Z</time>
      </trkpt>
      <trkpt lat="43.46126" lon="5.52149">
        <ele>344</ele>
        <time>2022-02-22T13:55:09Z</time>
      </trkpt>
      <trkpt lat="43.46136" lon="5.5216">
        <ele>340</ele>
        <time>2022-02-22T13:55:24Z</time>
      </trkpt>
      <trkpt lat="43.46146" lon="5.52178">
        <ele>340</ele>
        <time>2022-02-22T13:55:39Z</time>
      </trkpt>
      <trkpt lat="43.46151" lon="5.52189">
        <ele>341</ele>
        <time>2022-02-22T13:55:55Z</time>
      </trkpt>
      <trkpt lat="43.46157" lon="5.52199">
        <ele>343</ele>
        <time>2022-02-22T13:56:10Z</time>
      </trkpt>
      <trkpt lat="43.46166" lon="5.52207">
        <ele>344</ele>
        <time>2022-02-22T13:56:26Z</time>
      </trkpt>
      <trkpt lat="43.46178" lon="5.52208">
        <ele>346</ele>
        <time>2022-02-22T13:56:41Z</time>
      </trkpt>
      <trkpt lat="43.46192" lon="5.52207">
        <ele>346</ele>
        <time>2022-02-22T13:56:56Z</time>
      </trkpt>
      <trkpt lat="43.46205" lon="5.52205">
        <ele>348</ele>
        <time>2022-02-22T13:57:12Z</time>
      </trkpt>
      <trkpt lat="43.46215" lon="5.52206">
        <ele>350</ele>
        <time>2022-02-22T13:57:27Z</time>
      </trkpt>
      <trkpt lat="43.46222" lon="5.52211">
        <ele>349</ele>
        <time>2022-02-22T13:57:43Z</time>
      </trkpt>
      <trkpt lat="43.46223" lon="5.52213">
        <ele>349</ele>
        <time>2022-02-22T13:57:59Z</time>
      </trkpt>
      <trkpt lat="43.4623" lon="5.52221">
        <ele>348</ele>
        <time>2022-02-22T13:58:14Z</time>
      </trkpt>
      <trkpt lat="43.46244" lon="5.52214">
        <ele>348</ele>
        <time>2022-02-22T13:58:30Z</time>
      </trkpt>
      <trkpt lat="43.46261" lon="5.52216">
        <ele>347</ele>
        <time>2022-02-22T13:58:46Z</time>
      </trkpt>
      <trkpt lat="43.46276" lon="5.52216">
        <ele>348</ele>
        <time>2022-02-22T13:59:02Z</time>
      </trkpt>
      <trkpt lat="43.46278" lon="5.52216">
        <ele>348</ele>
        <time>2022-02-22T13:59:17Z</time>
      </trkpt>
      <trkpt lat="43.46277" lon="5.52216">
        <ele>348</ele>
        <time>2022-02-22T13:59:33Z</time>
      </trkpt>
      <trkpt lat="43.46277" lon="5.52216">
        <ele>348</ele>
        <time>2022-02-22T13:59:48Z</time>
      </trkpt>
      <trkpt lat="43.46277" lon="5.52216">
        <ele>348</ele>
        <time>2022-02-22T14:00:04Z</time>
      </trkpt>
      <trkpt lat="43.46287" lon="5.52215">
        <ele>347</ele>
        <time>2022-02-22T14:00:19Z</time>
      </trkpt>
      <trkpt lat="43.46302" lon="5.52217">
        <ele>346</ele>
        <time>2022-02-22T14:00:34Z</time>
      </trkpt>
      <trkpt lat="43.46316" lon="5.52219">
        <ele>343</ele>
        <time>2022-02-22T14:00:50Z</time>
      </trkpt>
      <trkpt lat="43.46328" lon="5.52219">
        <ele>343</ele>
        <time>2022-02-22T14:01:05Z</time>
      </trkpt>
      <trkpt lat="43.46344" lon="5.52218">
        <ele>343</ele>
        <time>2022-02-22T14:01:21Z</time>
      </trkpt>
      <trkpt lat="43.46359" lon="5.52215">
        <ele>343</ele>
        <time>2022-02-22T14:01:37Z</time>
      </trkpt>
      <trkpt lat="43.4637" lon="5.52215">
        <ele>342</ele>
        <time>2022-02-22T14:01:52Z</time>
      </trkpt>
      <trkpt lat="43.46379" lon="5.52217">
        <ele>341</ele>
        <time>2022-02-22T14:02:08Z</time>
      </trkpt>
      <trkpt lat="43.46385" lon="5.52217">
        <ele>340</ele>
        <time>2022-02-22T14:02:23Z</time>
      </trkpt>
      <trkpt lat="43.46394" lon="5.52217">
        <ele>340</ele>
        <time>2022-02-22T14:02:39Z</time>
      </trkpt>
      <trkpt lat="43.46406" lon="5.52213">
        <ele>339</ele>
        <time>2022-02-22T14:02:55Z</time>
      </trkpt>
      <trkpt lat="43.46419" lon="5.5221">
        <ele>338</ele>
        <time>2022-02-22T14:03:10Z</time>
      </trkpt>
      <trkpt lat="43.46435" lon="5.52209">
        <ele>336</ele>
        <time>2022-02-22T14:03:26Z</time>
      </trkpt>
      <trkpt lat="43.46447" lon="5.52208">
        <ele>337</ele>
        <time>2022-02-22T14:03:41Z</time>
      </trkpt>
      <trkpt lat="43.46461" lon="5.52208">
        <ele>335</ele>
        <time>2022-02-22T14:03:57Z</time>
      </trkpt>
      <trkpt lat="43.46472" lon="5.52206">
        <ele>333</ele>
        <time>2022-02-22T14:04:12Z</time>
      </trkpt>
      <trkpt lat="43.46483" lon="5.52211">
        <ele>331</ele>
        <time>2022-02-22T14:04:27Z</time>
      </trkpt>
      <trkpt lat="43.46495" lon="5.52212">
        <ele>330</ele>
        <time>2022-02-22T14:04:43Z</time>
      </trkpt>
      <trkpt lat="43.46509" lon="5.52207">
        <ele>327</ele>
        <time>2022-02-22T14:04:59Z</time>
      </trkpt>
      <trkpt lat="43.46523" lon="5.52205">
        <ele>325</ele>
        <time>2022-02-22T14:05:15Z</time>
      </trkpt>
      <trkpt lat="43.46535" lon="5.52211">
        <ele>326</ele>
        <time>2022-02-22T14:05:30Z</time>
      </trkpt>
      <trkpt lat="43.46547" lon="5.5222">
        <ele>328</ele>
        <time>2022-02-22T14:05:46Z</time>
      </trkpt>
      <trkpt lat="43.46563" lon="5.52224">
        <ele>325</ele>
        <time>2022-02-22T14:06:02Z</time>
      </trkpt>
      <trkpt lat="43.4658" lon="5.52222">
        <ele>322</ele>
        <time>2022-02-22T14:06:17Z</time>
      </trkpt>
      <trkpt lat="43.46596" lon="5.5222">
        <ele>321</ele>
        <time>2022-02-22T14:06:33Z</time>
      </trkpt>
      <trkpt lat="43.46611" lon="5.5222">
        <ele>324</ele>
        <time>2022-02-22T14:06:48Z</time>
      </trkpt>
      <trkpt lat="43.46625" lon="5.52222">
        <ele>322</ele>
        <time>2022-02-22T14:07:04Z</time>
      </trkpt>
      <trkpt lat="43.46639" lon="5.52221">
        <ele>319</ele>
        <time>2022-02-22T14:07:19Z</time>
      </trkpt>
      <trkpt lat="43.46653" lon="5.52221">
        <ele>318</ele>
        <time>2022-02-22T14:07:34Z</time>
      </trkpt>
      <trkpt lat="43.4666" lon="5.52224">
        <ele>316</ele>
        <time>2022-02-22T14:07:50Z</time>
      </trkpt>
      <trkpt lat="43.46663" lon="5.52224">
        <ele>317</ele>
        <time>2022-02-22T14:08:05Z</time>
      </trkpt>
      <trkpt lat="43.46662" lon="5.52224">
        <ele>317</ele>
        <time>2022-02-22T14:08:21Z</time>
      </trkpt>
      <trkpt lat="43.46662" lon="5.52224">
        <ele>317</ele>
        <time>2022-02-22T14:08:36Z</time>
      </trkpt>
      <trkpt lat="43.46662" lon="5.52224">
        <ele>317</ele>
        <time>2022-02-22T14:08:52Z</time>
      </trkpt>
      <trkpt lat="43.46665" lon="5.52222">
        <ele>317</ele>
        <time>2022-02-22T14:09:08Z</time>
      </trkpt>
      <trkpt lat="43.46665" lon="5.52222">
        <ele>317</ele>
        <time>2022-02-22T14:09:24Z</time>
      </trkpt>
      <trkpt lat="43.46665" lon="5.52222">
        <ele>317</ele>
        <time>2022-02-22T14:09:40Z</time>
      </trkpt>
      <trkpt lat="43.46665" lon="5.52222">
        <ele>317</ele>
        <time>2022-02-22T14:09:55Z</time>
      </trkpt>
      <trkpt lat="43.46665" lon="5.52222">
        <ele>317</ele>
        <time>2022-02-22T14:10:10Z</time>
      </trkpt>
      <trkpt lat="43.46665" lon="5.52222">
        <ele>317</ele>
        <time>2022-02-22T14:10:25Z</time>
      </trkpt>
      <trkpt lat="43.46665" lon="5.52222">
        <ele>317</ele>
        <time>2022-02-22T14:10:40Z</time>
      </trkpt>
      <trkpt lat="43.46663" lon="5.52222">
        <ele>316</ele>
        <time>2022-02-22T14:10:55Z</time>
      </trkpt>
      <trkpt lat="43.46663" lon="5.52222">
        <ele>316</ele>
        <time>2022-02-22T14:11:11Z</time>
      </trkpt>
      <trkpt lat="43.46663" lon="5.52223">
        <ele>315</ele>
        <time>2022-02-22T14:11:27Z</time>
      </trkpt>
      <trkpt lat="43.46663" lon="5.52223">
        <ele>315</ele>
        <time>2022-02-22T14:11:42Z</time>
      </trkpt>
      <trkpt lat="43.46663" lon="5.52223">
        <ele>315</ele>
        <time>2022-02-22T14:11:58Z</time>
      </trkpt>
      <trkpt lat="43.46663" lon="5.52223">
        <ele>315</ele>
        <time>2022-02-22T14:12:13Z</time>
      </trkpt>
      <trkpt lat="43.46663" lon="5.52223">
        <ele>315</ele>
        <time>2022-02-22T14:12:29Z</time>
      </trkpt>
      <trkpt lat="43.46663" lon="5.52223">
        <ele>315</ele>
        <time>2022-02-22T14:12:45Z</time>
      </trkpt>
      <trkpt lat="43.46663" lon="5.52223">
        <ele>315</ele>
        <time>2022-02-22T14:13:01Z</time>
      </trkpt>
      <trkpt lat="43.46663" lon="5.52223">
        <ele>315</ele>
        <time>2022-02-22T14:13:16Z</time>
      </trkpt>
      <trkpt lat="43.46662" lon="5.52223">
        <ele>316</ele>
        <time>2022-02-22T14:13:31Z</time>
      </trkpt>
      <trkpt lat="43.46662" lon="5.52223">
        <ele>316</ele>
        <time>2022-02-22T14:13:47Z</time>
      </trkpt>
      <trkpt lat="43.46662" lon="5.52223">
        <ele>316</ele>
        <time>2022-02-22T14:14:02Z</time>
      </trkpt>
      <trkpt lat="43.46662" lon="5.52232">
        <ele>316</ele>
        <time>2022-02-22T14:14:18Z</time>
      </trkpt>
      <trkpt lat="43.46655" lon="5.52247">
        <ele>316</ele>
        <time>2022-02-22T14:14:34Z</time>
      </trkpt>
      <trkpt lat="43.46635" lon="5.52249">
        <ele>318</ele>
        <time>2022-02-22T14:14:50Z</time>
      </trkpt>
      <trkpt lat="43.46619" lon="5.52253">
        <ele>318</ele>
        <time>2022-02-22T14:15:05Z</time>
      </trkpt>
      <trkpt lat="43.46603" lon="5.52258">
        <ele>319</ele>
        <time>2022-02-22T14:15:20Z</time>
      </trkpt>
      <trkpt lat="43.46585" lon="5.52264">
        <ele>320</ele>
        <time>2022-02-22T14:15:36Z</time>
      </trkpt>
      <trkpt lat="43.4657" lon="5.5227">
        <ele>318</ele>
        <time>2022-02-22T14:15:51Z</time>
      </trkpt>
      <trkpt lat="43.46554" lon="5.52277">
        <ele>318</ele>
        <time>2022-02-22T14:16:06Z</time>
      </trkpt>
      <trkpt lat="43.4654" lon="5.52287">
        <ele>315</ele>
        <time>2022-02-22T14:16:22Z</time>
      </trkpt>
      <trkpt lat="43.46524" lon="5.52297">
        <ele>314</ele>
        <time>2022-02-22T14:16:37Z</time>
      </trkpt>
      <trkpt lat="43.4651" lon="5.52308">
        <ele>315</ele>
        <time>2022-02-22T14:16:53Z</time>
      </trkpt>
      <trkpt lat="43.46495" lon="5.52315">
        <ele>316</ele>
        <time>2022-02-22T14:17:08Z</time>
      </trkpt>
      <trkpt lat="43.46491" lon="5.52319">
        <ele>319</ele>
        <time>2022-02-22T14:17:24Z</time>
      </trkpt>
      <trkpt lat="43.46483" lon="5.52322">
        <ele>320</ele>
        <time>2022-02-22T14:17:39Z</time>
      </trkpt>
      <trkpt lat="43.46469" lon="5.52327">
        <ele>319</ele>
        <time>2022-02-22T14:17:54Z</time>
      </trkpt>
      <trkpt lat="43.46454" lon="5.52333">
        <ele>319</ele>
        <time>2022-02-22T14:18:10Z</time>
      </trkpt>
      <trkpt lat="43.46436" lon="5.52341">
        <ele>317</ele>
        <time>2022-02-22T14:18:26Z</time>
      </trkpt>
      <trkpt lat="43.4643" lon="5.52345">
        <ele>317</ele>
        <time>2022-02-22T14:18:41Z</time>
      </trkpt>
      <trkpt lat="43.4642" lon="5.52351">
        <ele>317</ele>
        <time>2022-02-22T14:18:56Z</time>
      </trkpt>
      <trkpt lat="43.46407" lon="5.52353">
        <ele>319</ele>
        <time>2022-02-22T14:19:11Z</time>
      </trkpt>
      <trkpt lat="43.46395" lon="5.52358">
        <ele>321</ele>
        <time>2022-02-22T14:19:27Z</time>
      </trkpt>
      <trkpt lat="43.46393" lon="5.52361">
        <ele>320</ele>
        <time>2022-02-22T14:19:42Z</time>
      </trkpt>
      <trkpt lat="43.46375" lon="5.52368">
        <ele>319</ele>
        <time>2022-02-22T14:19:58Z</time>
      </trkpt>
      <trkpt lat="43.46358" lon="5.52372">
        <ele>320</ele>
        <time>2022-02-22T14:20:13Z</time>
      </trkpt>
      <trkpt lat="43.46342" lon="5.52375">
        <ele>320</ele>
        <time>2022-02-22T14:20:29Z</time>
      </trkpt>
      <trkpt lat="43.46326" lon="5.52383">
        <ele>320</ele>
        <time>2022-02-22T14:20:45Z</time>
      </trkpt>
      <trkpt lat="43.4631" lon="5.52392">
        <ele>320</ele>
        <time>2022-02-22T14:21:00Z</time>
      </trkpt>
      <trkpt lat="43.4629" lon="5.52398">
        <ele>320</ele>
        <time>2022-02-22T14:21:16Z</time>
      </trkpt>
      <trkpt lat="43.46275" lon="5.52405">
        <ele>317</ele>
        <time>2022-02-22T14:21:31Z</time>
      </trkpt>
      <trkpt lat="43.46256" lon="5.52409">
        <ele>318</ele>
        <time>2022-02-22T14:21:47Z</time>
      </trkpt>
      <trkpt lat="43.46239" lon="5.5242">
        <ele>317</ele>
        <time>2022-02-22T14:22:03Z</time>
      </trkpt>
      <trkpt lat="43.46224" lon="5.52433">
        <ele>317</ele>
        <time>2022-02-22T14:22:19Z</time>
      </trkpt>
      <trkpt lat="43.4621" lon="5.52446">
        <ele>317</ele>
        <time>2022-02-22T14:22:35Z</time>
      </trkpt>
      <trkpt lat="43.46201" lon="5.52451">
        <ele>317</ele>
        <time>2022-02-22T14:22:50Z</time>
      </trkpt>
      <trkpt lat="43.46198" lon="5.52451">
        <ele>317</ele>
        <time>2022-02-22T14:23:06Z</time>
      </trkpt>
      <trkpt lat="43.46183" lon="5.52451">
        <ele>317</ele>
        <time>2022-02-22T14:23:21Z</time>
      </trkpt>
      <trkpt lat="43.46168" lon="5.52448">
        <ele>319</ele>
        <time>2022-02-22T14:23:37Z</time>
      </trkpt>
      <trkpt lat="43.46162" lon="5.52448">
        <ele>318</ele>
        <time>2022-02-22T14:23:52Z</time>
      </trkpt>
      <trkpt lat="43.46159" lon="5.52449">
        <ele>318</ele>
        <time>2022-02-22T14:24:08Z</time>
      </trkpt>
      <trkpt lat="43.46151" lon="5.52467">
        <ele>318</ele>
        <time>2022-02-22T14:24:24Z</time>
      </trkpt>
      <trkpt lat="43.46153" lon="5.52488">
        <ele>316</ele>
        <time>2022-02-22T14:24:39Z</time>
      </trkpt>
      <trkpt lat="43.46162" lon="5.52504">
        <ele>315</ele>
        <time>2022-02-22T14:24:55Z</time>
      </trkpt>
      <trkpt lat="43.46175" lon="5.52519">
        <ele>315</ele>
        <time>2022-02-22T14:25:11Z</time>
      </trkpt>
      <trkpt lat="43.4619" lon="5.52527">
        <ele>315</ele>
        <time>2022-02-22T14:25:26Z</time>
      </trkpt>
      <trkpt lat="43.46205" lon="5.52533">
        <ele>315</ele>
        <time>2022-02-22T14:25:42Z</time>
      </trkpt>
      <trkpt lat="43.4622" lon="5.52541">
        <ele>316</ele>
        <time>2022-02-22T14:25:58Z</time>
      </trkpt>
      <trkpt lat="43.46239" lon="5.52533">
        <ele>315</ele>
        <time>2022-02-22T14:26:14Z</time>
      </trkpt>
      <trkpt lat="43.46257" lon="5.52526">
        <ele>316</ele>
        <time>2022-02-22T14:26:29Z</time>
      </trkpt>
      <trkpt lat="43.46274" lon="5.52519">
        <ele>316</ele>
        <time>2022-02-22T14:26:45Z</time>
      </trkpt>
      <trkpt lat="43.46291" lon="5.52514">
        <ele>315</ele>
        <time>2022-02-22T14:27:00Z</time>
      </trkpt>
      <trkpt lat="43.4631" lon="5.52511">
        <ele>315</ele>
        <time>2022-02-22T14:27:16Z</time>
      </trkpt>
      <trkpt lat="43.46323" lon="5.52507">
        <ele>316</ele>
        <time>2022-02-22T14:27:31Z</time>
      </trkpt>
      <trkpt lat="43.46343" lon="5.52504">
        <ele>315</ele>
        <time>2022-02-22T14:27:47Z</time>
      </trkpt>
      <trkpt lat="43.46361" lon="5.525">
        <ele>315</ele>
        <time>2022-02-22T14:28:02Z</time>
      </trkpt>
      <trkpt lat="43.46378" lon="5.52501">
        <ele>316</ele>
        <time>2022-02-22T14:28:17Z</time>
      </trkpt>
      <trkpt lat="43.46396" lon="5.52502">
        <ele>315</ele>
        <time>2022-02-22T14:28:33Z</time>
      </trkpt>
      <trkpt lat="43.46413" lon="5.52502">
        <ele>314</ele>
        <time>2022-02-22T14:28:48Z</time>
      </trkpt>
      <trkpt lat="43.46431" lon="5.52498">
        <ele>314</ele>
        <time>2022-02-22T14:29:04Z</time>
      </trkpt>
      <trkpt lat="43.46449" lon="5.52495">
        <ele>311</ele>
        <time>2022-02-22T14:29:19Z</time>
      </trkpt>
      <trkpt lat="43.46466" lon="5.52487">
        <ele>313</ele>
        <time>2022-02-22T14:29:35Z</time>
      </trkpt>
      <trkpt lat="43.46482" lon="5.5248">
        <ele>313</ele>
        <time>2022-02-22T14:29:50Z</time>
      </trkpt>
      <trkpt lat="43.46498" lon="5.52472">
        <ele>313</ele>
        <time>2022-02-22T14:30:05Z</time>
      </trkpt>
      <trkpt lat="43.46513" lon="5.52462">
        <ele>312</ele>
        <time>2022-02-22T14:30:21Z</time>
      </trkpt>
      <trkpt lat="43.46528" lon="5.5245">
        <ele>311</ele>
        <time>2022-02-22T14:30:36Z</time>
      </trkpt>
      <trkpt lat="43.46543" lon="5.52439">
        <ele>311</ele>
        <time>2022-02-22T14:30:52Z</time>
      </trkpt>
      <trkpt lat="43.4655" lon="5.52438">
        <ele>311</ele>
        <time>2022-02-22T14:31:07Z</time>
      </trkpt>
      <trkpt lat="43.46552" lon="5.52439">
        <ele>311</ele>
        <time>2022-02-22T14:31:23Z</time>
      </trkpt>
      <trkpt lat="43.46553" lon="5.5244">
        <ele>313</ele>
        <time>2022-02-22T14:31:38Z</time>
      </trkpt>
      <trkpt lat="43.46553" lon="5.5244">
        <ele>316</ele>
        <time>2022-02-22T14:31:53Z</time>
      </trkpt>
      <trkpt lat="43.46553" lon="5.52439">
        <ele>316</ele>
        <time>2022-02-22T14:32:09Z</time>
      </trkpt>
      <trkpt lat="43.4656" lon="5.52437">
        <ele>316</ele>
        <time>2022-02-22T14:32:24Z</time>
      </trkpt>
      <trkpt lat="43.4657" lon="5.52437">
        <ele>314</ele>
        <time>2022-02-22T14:32:40Z</time>
      </trkpt>
      <trkpt lat="43.46573" lon="5.5244">
        <ele>314</ele>
        <time>2022-02-22T14:32:55Z</time>
      </trkpt>
      <trkpt lat="43.46584" lon="5.52445">
        <ele>314</ele>
        <time>2022-02-22T14:33:10Z</time>
      </trkpt>
      <trkpt lat="43.466" lon="5.52462">
        <ele>313</ele>
        <time>2022-02-22T14:33:26Z</time>
      </trkpt>
      <trkpt lat="43.4661" lon="5.52479">
        <ele>312</ele>
        <time>2022-02-22T14:33:41Z</time>
      </trkpt>
      <trkpt lat="43.46617" lon="5.52499">
        <ele>313</ele>
        <time>2022-02-22T14:33:56Z</time>
      </trkpt>
      <trkpt lat="43.46624" lon="5.52519">
        <ele>313</ele>
        <time>2022-02-22T14:34:12Z</time>
      </trkpt>
      <trkpt lat="43.46628" lon="5.52531">
        <ele>313</ele>
        <time>2022-02-22T14:34:27Z</time>
      </trkpt>
      <trkpt lat="43.46629" lon="5.52533">
        <ele>314</ele>
        <time>2022-02-22T14:34:43Z</time>
      </trkpt>
      <trkpt lat="43.46621" lon="5.52539">
        <ele>312</ele>
        <time>2022-02-22T14:34:59Z</time>
      </trkpt>
      <trkpt lat="43.46606" lon="5.52541">
        <ele>314</ele>
        <time>2022-02-22T14:35:14Z</time>
      </trkpt>
      <trkpt lat="43.46595" lon="5.5255">
        <ele>314</ele>
        <time>2022-02-22T14:35:29Z</time>
      </trkpt>
      <trkpt lat="43.46581" lon="5.52561">
        <ele>318</ele>
        <time>2022-02-22T14:35:45Z</time>
      </trkpt>
      <trkpt lat="43.46567" lon="5.52572">
        <ele>320</ele>
        <time>2022-02-22T14:36:00Z</time>
      </trkpt>
      <trkpt lat="43.46555" lon="5.52578">
        <ele>323</ele>
        <time>2022-02-22T14:36:15Z</time>
      </trkpt>
      <trkpt lat="43.46541" lon="5.52581">
        <ele>325</ele>
        <time>2022-02-22T14:36:31Z</time>
      </trkpt>
      <trkpt lat="43.46531" lon="5.52585">
        <ele>327</ele>
        <time>2022-02-22T14:36:46Z</time>
      </trkpt>
      <trkpt lat="43.46515" lon="5.52592">
        <ele>328</ele>
        <time>2022-02-22T14:37:02Z</time>
      </trkpt>
      <trkpt lat="43.46505" lon="5.52594">
        <ele>328</ele>
        <time>2022-02-22T14:37:17Z</time>
      </trkpt>
      <trkpt lat="43.46506" lon="5.52594">
        <ele>328</ele>
        <time>2022-02-22T14:37:33Z</time>
      </trkpt>
      <trkpt lat="43.46506" lon="5.52593">
        <ele>328</ele>
        <time>2022-02-22T14:37:48Z</time>
      </trkpt>
      <trkpt lat="43.46505" lon="5.52592">
        <ele>328</ele>
        <time>2022-02-22T14:38:04Z</time>
      </trkpt>
      <trkpt lat="43.46505" lon="5.52592">
        <ele>328</ele>
        <time>2022-02-22T14:38:19Z</time>
      </trkpt>
      <trkpt lat="43.46505" lon="5.52592">
        <ele>328</ele>
        <time>2022-02-22T14:38:34Z</time>
      </trkpt>
      <trkpt lat="43.465" lon="5.52592">
        <ele>330</ele>
        <time>2022-02-22T14:38:50Z</time>
      </trkpt>
      <trkpt lat="43.46486" lon="5.52594">
        <ele>331</ele>
        <time>2022-02-22T14:39:05Z</time>
      </trkpt>
      <trkpt lat="43.46471" lon="5.52596">
        <ele>333</ele>
        <time>2022-02-22T14:39:21Z</time>
      </trkpt>
      <trkpt lat="43.46455" lon="5.52602">
        <ele>336</ele>
        <time>2022-02-22T14:39:37Z</time>
      </trkpt>
      <trkpt lat="43.46443" lon="5.52607">
        <ele>336</ele>
        <time>2022-02-22T14:39:52Z</time>
      </trkpt>
      <trkpt lat="43.46428" lon="5.52611">
        <ele>336</ele>
        <time>2022-02-22T14:40:08Z</time>
      </trkpt>
      <trkpt lat="43.46413" lon="5.52616">
        <ele>338</ele>
        <time>2022-02-22T14:40:23Z</time>
      </trkpt>
      <trkpt lat="43.46403" lon="5.52615">
        <ele>339</ele>
        <time>2022-02-22T14:40:39Z</time>
      </trkpt>
      <trkpt lat="43.46402" lon="5.52615">
        <ele>340</ele>
        <time>2022-02-22T14:40:54Z</time>
      </trkpt>
      <trkpt lat="43.464" lon="5.52616">
        <ele>340</ele>
        <time>2022-02-22T14:41:09Z</time>
      </trkpt>
      <trkpt lat="43.46398" lon="5.52614">
        <ele>342</ele>
        <time>2022-02-22T14:41:24Z</time>
      </trkpt>
      <trkpt lat="43.46398" lon="5.52614">
        <ele>342</ele>
        <time>2022-02-22T14:41:39Z</time>
      </trkpt>
      <trkpt lat="43.46396" lon="5.52616">
        <ele>342</ele>
        <time>2022-02-22T14:41:55Z</time>
      </trkpt>
      <trkpt lat="43.46384" lon="5.52621">
        <ele>341</ele>
        <time>2022-02-22T14:42:10Z</time>
      </trkpt>
      <trkpt lat="43.4637" lon="5.52622">
        <ele>341</ele>
        <time>2022-02-22T14:42:26Z</time>
      </trkpt>
      <trkpt lat="43.46356" lon="5.52622">
        <ele>341</ele>
        <time>2022-02-22T14:42:42Z</time>
      </trkpt>
      <trkpt lat="43.4634" lon="5.52626">
        <ele>343</ele>
        <time>2022-02-22T14:42:57Z</time>
      </trkpt>
      <trkpt lat="43.46328" lon="5.52634">
        <ele>344</ele>
        <time>2022-02-22T14:43:12Z</time>
      </trkpt>
      <trkpt lat="43.46313" lon="5.52643">
        <ele>347</ele>
        <time>2022-02-22T14:43:27Z</time>
      </trkpt>
      <trkpt lat="43.46298" lon="5.52651">
        <ele>348</ele>
        <time>2022-02-22T14:43:43Z</time>
      </trkpt>
      <trkpt lat="43.46288" lon="5.52656">
        <ele>347</ele>
        <time>2022-02-22T14:43:58Z</time>
      </trkpt>
      <trkpt lat="43.46275" lon="5.52661">
        <ele>345</ele>
        <time>2022-02-22T14:44:14Z</time>
      </trkpt>
      <trkpt lat="43.46262" lon="5.52666">
        <ele>345</ele>
        <time>2022-02-22T14:44:30Z</time>
      </trkpt>
      <trkpt lat="43.46243" lon="5.52674">
        <ele>345</ele>
        <time>2022-02-22T14:44:46Z</time>
      </trkpt>
      <trkpt lat="43.46227" lon="5.52682">
        <ele>346</ele>
        <time>2022-02-22T14:45:01Z</time>
      </trkpt>
      <trkpt lat="43.46223" lon="5.52687">
        <ele>346</ele>
        <time>2022-02-22T14:45:16Z</time>
      </trkpt>
      <trkpt lat="43.46224" lon="5.52687">
        <ele>346</ele>
        <time>2022-02-22T14:45:32Z</time>
      </trkpt>
      <trkpt lat="43.46224" lon="5.52687">
        <ele>346</ele>
        <time>2022-02-22T14:45:47Z</time>
      </trkpt>
      <trkpt lat="43.46224" lon="5.52687">
        <ele>346</ele>
        <time>2022-02-22T14:46:03Z</time>
      </trkpt>
      <trkpt lat="43.46224" lon="5.52686">
        <ele>346</ele>
        <time>2022-02-22T14:46:18Z</time>
      </trkpt>
      <trkpt lat="43.46224" lon="5.52686">
        <ele>346</ele>
        <time>2022-02-22T14:46:34Z</time>
      </trkpt>
      <trkpt lat="43.46219" lon="5.52697">
        <ele>344</ele>
        <time>2022-02-22T14:46:49Z</time>
      </trkpt>
      <trkpt lat="43.4621" lon="5.52709">
        <ele>344</ele>
        <time>2022-02-22T14:47:04Z</time>
      </trkpt>
      <trkpt lat="43.46201" lon="5.52722">
        <ele>346</ele>
        <time>2022-02-22T14:47:20Z</time>
      </trkpt>
      <trkpt lat="43.46189" lon="5.5273">
        <ele>345</ele>
        <time>2022-02-22T14:47:36Z</time>
      </trkpt>
      <trkpt lat="43.46176" lon="5.52741">
        <ele>344</ele>
        <time>2022-02-22T14:47:51Z</time>
      </trkpt>
      <trkpt lat="43.46164" lon="5.52753">
        <ele>345</ele>
        <time>2022-02-22T14:48:06Z</time>
      </trkpt>
      <trkpt lat="43.46147" lon="5.52759">
        <ele>345</ele>
        <time>2022-02-22T14:48:21Z</time>
      </trkpt>
      <trkpt lat="43.46129" lon="5.52764">
        <ele>346</ele>
        <time>2022-02-22T14:48:37Z</time>
      </trkpt>
      <trkpt lat="43.46111" lon="5.52769">
        <ele>347</ele>
        <time>2022-02-22T14:48:53Z</time>
      </trkpt>
      <trkpt lat="43.46094" lon="5.52773">
        <ele>345</ele>
        <time>2022-02-22T14:49:08Z</time>
      </trkpt>
      <trkpt lat="43.46076" lon="5.52778">
        <ele>345</ele>
        <time>2022-02-22T14:49:24Z</time>
      </trkpt>
      <trkpt lat="43.4606" lon="5.52782">
        <ele>345</ele>
        <time>2022-02-22T14:49:39Z</time>
      </trkpt>
      <trkpt lat="43.46045" lon="5.52788">
        <ele>345</ele>
        <time>2022-02-22T14:49:55Z</time>
      </trkpt>
      <trkpt lat="43.46033" lon="5.52793">
        <ele>347</ele>
        <time>2022-02-22T14:50:10Z</time>
      </trkpt>
      <trkpt lat="43.46018" lon="5.528">
        <ele>349</ele>
        <time>2022-02-22T14:50:26Z</time>
      </trkpt>
      <trkpt lat="43.46005" lon="5.52805">
        <ele>351</ele>
        <time>2022-02-22T14:50:42Z</time>
      </trkpt>
      <trkpt lat="43.45995" lon="5.52808">
        <ele>351</ele>
        <time>2022-02-22T14:50:57Z</time>
      </trkpt>
      <trkpt lat="43.45982" lon="5.52811">
        <ele>352</ele>
        <time>2022-02-22T14:51:13Z</time>
      </trkpt>
      <trkpt lat="43.4598" lon="5.52811">
        <ele>353</ele>
        <time>2022-02-22T14:51:28Z</time>
      </trkpt>
      <trkpt lat="43.4598" lon="5.52809">
        <ele>353</ele>
        <time>2022-02-22T14:51:44Z</time>
      </trkpt>
      <trkpt lat="43.4598" lon="5.52809">
        <ele>353</ele>
        <time>2022-02-22T14:51:59Z</time>
      </trkpt>
      <trkpt lat="43.45979" lon="5.52809">
        <ele>354</ele>
        <time>2022-02-22T14:52:15Z</time>
      </trkpt>
      <trkpt lat="43.45979" lon="5.52809">
        <ele>354</ele>
        <time>2022-02-22T14:52:30Z</time>
      </trkpt>
      <trkpt lat="43.4598" lon="5.5281">
        <ele>354</ele>
        <time>2022-02-22T14:52:46Z</time>
      </trkpt>
      <trkpt lat="43.4598" lon="5.52809">
        <ele>356</ele>
        <time>2022-02-22T14:53:01Z</time>
      </trkpt>
      <trkpt lat="43.4598" lon="5.52809">
        <ele>356</ele>
        <time>2022-02-22T14:53:17Z</time>
      </trkpt>
      <trkpt lat="43.45979" lon="5.52808">
        <ele>355</ele>
        <time>2022-02-22T14:53:32Z</time>
      </trkpt>
      <trkpt lat="43.45979" lon="5.52808">
        <ele>355</ele>
        <time>2022-02-22T14:53:47Z</time>
      </trkpt>
      <trkpt lat="43.45979" lon="5.52809">
        <ele>355</ele>
        <time>2022-02-22T14:54:02Z</time>
      </trkpt>
      <trkpt lat="43.45979" lon="5.52809">
        <ele>355</ele>
        <time>2022-02-22T14:54:17Z</time>
      </trkpt>
      <trkpt lat="43.45978" lon="5.52809">
        <ele>355</ele>
        <time>2022-02-22T14:54:33Z</time>
      </trkpt>
      <trkpt lat="43.45978" lon="5.52809">
        <ele>354</ele>
        <time>2022-02-22T14:54:48Z</time>
      </trkpt>
      <trkpt lat="43.45964" lon="5.52812">
        <ele>354</ele>
        <time>2022-02-22T14:55:04Z</time>
      </trkpt>
      <trkpt lat="43.45948" lon="5.52817">
        <ele>352</ele>
        <time>2022-02-22T14:55:19Z</time>
      </trkpt>
      <trkpt lat="43.45932" lon="5.52823">
        <ele>353</ele>
        <time>2022-02-22T14:55:35Z</time>
      </trkpt>
      <trkpt lat="43.45916" lon="5.52828">
        <ele>353</ele>
        <time>2022-02-22T14:55:50Z</time>
      </trkpt>
      <trkpt lat="43.45901" lon="5.5283">
        <ele>355</ele>
        <time>2022-02-22T14:56:05Z</time>
      </trkpt>
      <trkpt lat="43.45887" lon="5.52826">
        <ele>356</ele>
        <time>2022-02-22T14:56:21Z</time>
      </trkpt>
      <trkpt lat="43.45875" lon="5.52824">
        <ele>356</ele>
        <time>2022-02-22T14:56:37Z</time>
      </trkpt>
      <trkpt lat="43.45861" lon="5.52823">
        <ele>360</ele>
        <time>2022-02-22T14:56:53Z</time>
      </trkpt>
      <trkpt lat="43.45847" lon="5.52826">
        <ele>360</ele>
        <time>2022-02-22T14:57:08Z</time>
      </trkpt>
      <trkpt lat="43.45837" lon="5.52827">
        <ele>362</ele>
        <time>2022-02-22T14:57:23Z</time>
      </trkpt>
      <trkpt lat="43.45836" lon="5.52827">
        <ele>363</ele>
        <time>2022-02-22T14:57:39Z</time>
      </trkpt>
      <trkpt lat="43.45836" lon="5.52827">
        <ele>363</ele>
        <time>2022-02-22T14:57:54Z</time>
      </trkpt>
      <trkpt lat="43.45836" lon="5.52827">
        <ele>363</ele>
        <time>2022-02-22T14:58:10Z</time>
      </trkpt>
      <trkpt lat="43.45836" lon="5.52827">
        <ele>363</ele>
        <time>2022-02-22T14:58:25Z</time>
      </trkpt>
      <trkpt lat="43.45827" lon="5.52828">
        <ele>361</ele>
        <time>2022-02-22T14:58:40Z</time>
      </trkpt>
      <trkpt lat="43.45813" lon="5.5283">
        <ele>362</ele>
        <time>2022-02-22T14:58:56Z</time>
      </trkpt>
      <trkpt lat="43.45799" lon="5.52834">
        <ele>363</ele>
        <time>2022-02-22T14:59:11Z</time>
      </trkpt>
      <trkpt lat="43.45785" lon="5.52838">
        <ele>361</ele>
        <time>2022-02-22T14:59:27Z</time>
      </trkpt>
      <trkpt lat="43.45771" lon="5.52843">
        <ele>361</ele>
        <time>2022-02-22T14:59:42Z</time>
      </trkpt>
      <trkpt lat="43.45755" lon="5.52851">
        <ele>362</ele>
        <time>2022-02-22T14:59:57Z</time>
      </trkpt>
      <trkpt lat="43.45742" lon="5.52859">
        <ele>364</ele>
        <time>2022-02-22T15:00:13Z</time>
      </trkpt>
      <trkpt lat="43.4573" lon="5.52867">
        <ele>366</ele>
        <time>2022-02-22T15:00:28Z</time>
      </trkpt>
      <trkpt lat="43.45717" lon="5.52875">
        <ele>368</ele>
        <time>2022-02-22T15:00:44Z</time>
      </trkpt>
      <trkpt lat="43.45705" lon="5.52879">
        <ele>368</ele>
        <time>2022-02-22T15:00:59Z</time>
      </trkpt>
      <trkpt lat="43.45691" lon="5.52885">
        <ele>367</ele>
        <time>2022-02-22T15:01:15Z</time>
      </trkpt>
      <trkpt lat="43.45677" lon="5.52891">
        <ele>365</ele>
        <time>2022-02-22T15:01:31Z</time>
      </trkpt>
      <trkpt lat="43.45665" lon="5.52897">
        <ele>367</ele>
        <time>2022-02-22T15:01:46Z</time>
      </trkpt>
      <trkpt lat="43.45652" lon="5.52905">
        <ele>368</ele>
        <time>2022-02-22T15:02:02Z</time>
      </trkpt>
      <trkpt lat="43.45642" lon="5.5292">
        <ele>369</ele>
        <time>2022-02-22T15:02:17Z</time>
      </trkpt>
      <trkpt lat="43.45632" lon="5.52936">
        <ele>370</ele>
        <time>2022-02-22T15:02:33Z</time>
      </trkpt>
      <trkpt lat="43.45621" lon="5.52948">
        <ele>371</ele>
        <time>2022-02-22T15:02:48Z</time>
      </trkpt>
      <trkpt lat="43.45608" lon="5.52959">
        <ele>372</ele>
        <time>2022-02-22T15:03:03Z</time>
      </trkpt>
      <trkpt lat="43.45597" lon="5.52969">
        <ele>371</ele>
        <time>2022-02-22T15:03:19Z</time>
      </trkpt>
      <trkpt lat="43.45582" lon="5.52978">
        <ele>370</ele>
        <time>2022-02-22T15:03:34Z</time>
      </trkpt>
      <trkpt lat="43.45568" lon="5.52985">
        <ele>371</ele>
        <time>2022-02-22T15:03:50Z</time>
      </trkpt>
      <trkpt lat="43.45558" lon="5.52997">
        <ele>373</ele>
        <time>2022-02-22T15:04:05Z</time>
      </trkpt>
      <trkpt lat="43.45545" lon="5.53008">
        <ele>374</ele>
        <time>2022-02-22T15:04:21Z</time>
      </trkpt>
      <trkpt lat="43.4553" lon="5.53013">
        <ele>374</ele>
        <time>2022-02-22T15:04:36Z</time>
      </trkpt>
      <trkpt lat="43.45515" lon="5.53023">
        <ele>374</ele>
        <time>2022-02-22T15:04:52Z</time>
      </trkpt>
      <trkpt lat="43.45499" lon="5.53032">
        <ele>374</ele>
        <time>2022-02-22T15:05:08Z</time>
      </trkpt>
      <trkpt lat="43.45482" lon="5.5304">
        <ele>375</ele>
        <time>2022-02-22T15:05:24Z</time>
      </trkpt>
      <trkpt lat="43.45471" lon="5.53052">
        <ele>374</ele>
        <time>2022-02-22T15:05:39Z</time>
      </trkpt>
      <trkpt lat="43.45469" lon="5.53056">
        <ele>375</ele>
        <time>2022-02-22T15:05:55Z</time>
      </trkpt>
      <trkpt lat="43.45469" lon="5.53056">
        <ele>378</ele>
        <time>2022-02-22T15:06:10Z</time>
      </trkpt>
      <trkpt lat="43.45469" lon="5.53056">
        <ele>378</ele>
        <time>2022-02-22T15:06:26Z</time>
      </trkpt>
      <trkpt lat="43.45467" lon="5.53062">
        <ele>379</ele>
        <time>2022-02-22T15:06:41Z</time>
      </trkpt>
      <trkpt lat="43.45466" lon="5.53063">
        <ele>379</ele>
        <time>2022-02-22T15:06:57Z</time>
      </trkpt>
    </trkseg>
  </trk>
</gpx>